Pima, Arizona
Current Conditions -  °F | °C
As of 8:51 AM on Sunday 21 Dec 2014 (Local Time) from KSAD Reporting Station
Clear Clear  
Wind Chill: 34°   Ceiling: Unl
Heat Index: 39°   Visibility: 10mi
Dew Point: 35°   Wind: 7mph
Humidity: 86%   Direction: 110°ESE
Pressure: 30.1"   Gusts: NA
Location:  32.9°N, 109.83°W
Report Text: KSAD 211551Z AUTO 11006KT 10SM CLR 04/02 A3010 RMK AO2 SLP189 T00390017
Loading
Personal Weather Stations






























Interactive Weather Map New forecast layout! Learn more

10-Day Weather Forecast

Advertisements
Track Severe Weather on mobile